Terminal Aerodrome Forecast
Issued by NWS

Home | Current Version | Previous Version | Text Only | Print | Product List | Glossary On
Versions: 1 2 3 4 5 6 7 8 9 10 11
935
FTUS41 KBTV 221133
TAFMSS
TAF
KMSS 221133Z 2212/2312 VRB03KT P6SM BKN025
     FM221400 00000KT P6SM BKN035
     FM222200 VRB03KT P6SM BKN025
     FM222300 00000KT 4SM BR BKN015
     FM230200 00000KT 2SM BR VCSH OVC008
      TEMPO 2303/2307 1/2SM FG OVC005
     FM231000 20011KT 4SM BR VCSH OVC010=

USA.gov is the U.S. government's official web portal to all federal, state and local government web resources and services.